PAFA/FAI METAR and TAF weather

Enter ICAO airport designator
Station Type Date Time Source
PAFA METAR 2020/01/20 21:53 UTC NOAA

PAFA 202153Z 00000KT 10SM SCT110 BKN200 M26/M29 A2942 RMK AO2 SLP984 T12561289


Station Type Date Time Source
PAFA Decoded METAR 2020/01/20 21:53 UTC NOAA

Fairbanks, Fairbanks International Airport, AK, United States (PAFA) 64-48-14N 147-52-34W 140M
Jan 20, 2020 - 04:53 PM EST / 2020.01.20 2153 UTC
Wind: Calm:0
Visibility: 10 mile(s):0
Sky conditions: mostly cloudy
Temperature: -14.1 F (-25.6 C)
Dew Point: -20.0 F (-28.9 C)
Relative Humidity: 73%
Pressure (altimeter): 29.42 in. Hg (996 hPa)
ob: PAFA 202153Z 00000KT 10SM SCT110 BKN200 M26/M29 A2942 RMK AO2 SLP984 T12561289
cycle: 22

Station Type Date Time Source
PAFA TAF 2020/01/20 18:42 UTC NOAA

TAF TAF PAFA 201733Z 2018/2124 00000KT P6SM FEW110 SCT200
FM210600 VRB03KT P6SM SCT050 BKN080 OVC200

Example: see airport list